Impacts METAR Board INFO
IDs:

KLGA - New York/La Guardia, NY, US

Updated at: 0656 UTC 16 Dec 2017
Potential Impact None Slight Moderate High
Time15/18Z 15/19Z 15/20Z 15/21Z 15/22Z 15/23Z 16/00Z 16/01Z 16/02Z 16/03Z 16/04Z 16/05Z 16/06Z
VIS10 10 2.5 1 0.5 0.75 1.5 2 10 10 10 10 10
CIG50 60 26 9 7 7 10 65 80 -- -- -- --
CoverOVCOVCOVCOVCOVCOVCOVCOVCBKNSCTFEWSCTFEW
FltCatVFRVFRIFRIFRLIFRLIFRIFRIFRVFRVFRVFRVFRVFR
WX-----SN-SN BRSN FZFG-SN BR-SN BR-SN BR----------
WDir1902100310000290270260260260260
WSpd4 6 0 8 4 4 4 6 9 11 11 13 12
WGst-- -- -- -- -- -- -- -- -- -- -- -- 17
Raw hourly METARs
KLGA 151751Z 19004KT 10SM BKN050 OVC140 M02/M11 A3000 RMK AO2 SLP159 T10171111 11017 21050 58039
KLGA 151851Z 21006KT 10SM FEW050 OVC060 M02/M13 A2996 RMK AO2 SLP146 T10171133
KLGA 151957Z 00000KT 2 1/2SM -SN OVC026 M03/M09 A2993 RMK AO2 P0000 T10281089
KLGA 152058Z 31008KT 1SM R04/5000V6000FT -SN BR BKN009 OVC014 M03/M06 A2992 RMK AO2 P0000 T10331056
KLGA 152151Z VRB04KT 1/2SM R04/4500V5500FT SN FZFG BKN007 OVC014 M04/M06 A2993 RMK AO2 SLP134 P0005 T10391056 $
KLGA 152251Z VRB04KT 3/4SM R04/P6000FT -SN BR BKN007 OVC013 M04/M06 A2992 RMK AO2 SFC VIS 1 SLP132 P0005 T10391056 $
KLGA 152358Z VRB04KT 1 1/2SM -SN BR BKN010 OVC025 M03/M06 A2991 RMK AO2 SFC VIS 3 P0000 T10331056 $
KLGA 160100Z 29006KT 2SM -SN BR SCT013 OVC065 M03/M06 A2991 RMK AO2 SFC VIS 3 CIG 010 R22 SW P0000 T10331056 $
KLGA 160151Z 27009KT 10SM FEW013 SCT030 BKN080 M03/M07 A2991 RMK AO2 SNE20 SLP128 P0000 T10281072 $
KLGA 160251Z 26011KT 10SM FEW021 SCT080 M03/M08 A2992 RMK AO2 SLP132 60001 T10331078 53003 $
KLGA 160351Z 26011KT 10SM FEW110 M03/M08 A2991 RMK AO2 SLP128 T10331083 $
KLGA 160451Z 26013KT 10SM FEW080 SCT250 M04/M08 A2990 RMK AO2 SLP126 T10391078 410111050 $
KLGA 160551Z 26012G17KT 10SM FEW250 M03/M08 A2991 RMK AO2 SLP127 931002 4/001 60001 T10331078 11022 21039 55002 $